sensor_id;sensor_type;location;lat;lon;timestamp;pressure;altitude;pressure_sealevel;temperature;humidity
36092;BME280;22147;52.388;13.390;2024-01-10T00:01:20;102733.44;;;-11.77;100.00
36092;BME280;22147;52.388;13.390;2024-01-10T00:03:48;102741.25;;;-11.74;100.00
36092;BME280;22147;52.388;13.390;2024-01-10T00:06:16;102742.09;;;-11.74;100.00
36092;BME280;22147;52.388;13.390;2024-01-10T00:08:45;102736.72;;;-11.74;100.00
36092;BME280;22147;52.388;13.390;2024-01-10T00:11:13;102738.56;;;-11.74;100.00
36092;BME280;22147;52.388;13.390;2024-01-10T00:13:42;102740.66;;;-11.78;100.00
36092;BME280;22147;52.388;13.390;2024-01-10T00:16:14;102747.66;;;-11.86;100.00
36092;BME280;22147;52.388;13.390;2024-01-10T00:18:42;102742.88;;;-11.83;100.00
36092;BME280;22147;52.388;13.390;2024-01-10T00:21:11;102736.66;;;-11.83;100.00
36092;BME280;22147;52.388;13.390;2024-01-10T00:23:41;102737.38;;;-11.81;100.00
36092;BME280;22147;52.388;13.390;2024-01-10T00:26:10;102742.31;;;-11.77;100.00
36092;BME280;22147;52.388;13.390;2024-01-10T00:28:38;102735.00;;;-11.75;100.00
36092;BME280;22147;52.388;13.390;2024-01-10T00:31:07;102730.88;;;-11.79;100.00
36092;BME280;22147;52.388;13.390;2024-01-10T00:33:35;102727.25;;;-11.78;100.00
36092;BME280;22147;52.388;13.390;2024-01-10T00:36:04;102727.25;;;-11.78;100.00
36092;BME280;22147;52.388;13.390;2024-01-10T00:38:33;102730.38;;;-11.73;100.00
36092;BME280;22147;52.388;13.390;2024-01-10T00:41:00;102732.91;;;-11.71;100.00
36092;BME280;22147;52.388;13.390;2024-01-10T00:43:29;102725.00;;;-11.73;100.00
36092;BME280;22147;52.388;13.390;2024-01-10T00:45:57;102726.41;;;-11.78;100.00
36092;BME280;22147;52.388;13.390;2024-01-10T00:48:26;102721.75;;;-11.76;100.00
36092;BME280;22147;52.388;13.390;2024-01-10T00:50:54;102727.84;;;-11.74;100.00
36092;BME280;22147;52.388;13.390;2024-01-10T00:53:23;102732.19;;;-11.73;100.00
36092;BME280;22147;52.388;13.390;2024-01-10T00:55:51;102725.16;;;-11.74;100.00
36092;BME280;22147;52.388;13.390;2024-01-10T00:58:20;102711.59;;;-11.73;100.00
36092;BME280;22147;52.388;13.390;2024-01-10T01:00:48;102710.50;;;-11.70;100.00
36092;BME280;22147;52.388;13.390;2024-01-10T01:03:16;102712.19;;;-11.69;100.00
36092;BME280;22147;52.388;13.390;2024-01-10T01:05:45;102710.81;;;-11.63;100.00
36092;BME280;22147;52.388;13.390;2024-01-10T01:08:13;102723.09;;;-11.61;100.00
36092;BME280;22147;52.388;13.390;2024-01-10T01:10:42;102723.81;;;-11.59;100.00
36092;BME280;22147;52.388;13.390;2024-01-10T01:13:10;102724.53;;;-11.57;100.00
36092;BME280;22147;52.388;13.390;2024-01-10T01:15:39;102721.25;;;-11.60;100.00
36092;BME280;22147;52.388;13.390;2024-01-10T01:18:07;102713.50;;;-11.63;100.00
36092;BME280;22147;52.388;13.390;2024-01-10T01:20:40;102716.31;;;-11.65;100.00
36092;BME280;22147;52.388;13.390;2024-01-10T01:23:10;102714.34;;;-11.63;100.00
36092;BME280;22147;52.388;13.390;2024-01-10T01:25:40;102717.16;;;-11.64;100.00
36092;BME280;22147;52.388;13.390;2024-01-10T01:28:11;102720.66;;;-11.64;100.00
36092;BME280;22147;52.388;13.390;2024-01-10T01:30:41;102714.63;;;-11.66;100.00
36092;BME280;22147;52.388;13.390;2024-01-10T01:33:12;102703.19;;;-11.68;100.00
36092;BME280;22147;52.388;13.390;2024-01-10T01:35:42;102700.63;;;-11.70;100.00
36092;BME280;22147;52.388;13.390;2024-01-10T01:38:13;102708.66;;;-11.70;100.00
36092;BME280;22147;52.388;13.390;2024-01-10T01:40:43;102696.50;;;-11.74;100.00
36092;BME280;22147;52.388;13.390;2024-01-10T01:43:23;102701.03;;;-11.74;100.00
36092;BME280;22147;52.388;13.390;2024-01-10T01:45:56;102696.75;;;-11.77;100.00
36092;BME280;22147;52.388;13.390;2024-01-10T01:48:27;102697.47;;;-11.75;100.00
36092;BME280;22147;52.388;13.390;2024-01-10T01:51:06;102694.66;;;-11.73;100.00
36092;BME280;22147;52.388;13.390;2024-01-10T01:53:38;102689.44;;;-11.75;100.00
36092;BME280;22147;52.388;13.390;2024-01-10T01:56:12;102691.16;;;-11.74;100.00
36092;BME280;22147;52.388;13.390;2024-01-10T01:58:45;102691.25;;;-11.75;100.00
36092;BME280;22147;52.388;13.390;2024-01-10T02:01:18;102696.03;;;-11.79;100.00
36092;BME280;22147;52.388;13.390;2024-01-10T02:03:52;102689.13;;;-11.81;100.00
36092;BME280;22147;52.388;13.390;2024-01-10T02:06:23;102689.13;;;-11.81;100.00
36092;BME280;22147;52.388;13.390;2024-01-10T02:08:54;102691.66;;;-11.80;100.00
36092;BME280;22147;52.388;13.390;2024-01-10T02:11:25;102688.16;;;-11.80;100.00
36092;BME280;22147;52.388;13.390;2024-01-10T02:13:58;102678.56;;;-11.83;100.00
36092;BME280;22147;52.388;13.390;2024-01-10T02:16:29;102676.13;;;-11.86;100.00
36092;BME280;22147;52.388;13.390;2024-01-10T02:19:00;102686.84;;;-11.86;100.00
36092;BME280;22147;52.388;13.390;2024-01-10T02:21:31;102688.41;;;-11.83;100.00
36092;BME280;22147;52.388;13.390;2024-01-10T02:24:01;102685.00;;;-11.85;100.00
36092;BME280;22147;52.388;13.390;2024-01-10T02:26:32;102685.16;;;-11.87;100.00
36092;BME280;22147;52.388;13.390;2024-01-10T02:29:02;102686.00;;;-11.86;100.00
36092;BME280;22147;52.388;13.390;2024-01-10T02:31:33;102686.97;;;-11.88;100.00
36092;BME280;22147;52.388;13.390;2024-01-10T02:34:01;102685.31;;;-11.89;100.00
36092;BME280;22147;52.388;13.390;2024-01-10T02:36:30;102696.03;;;-11.89;100.00
36092;BME280;22147;52.388;13.390;2024-01-10T02:38:58;102691.06;;;-11.93;100.00
36092;BME280;22147;52.388;13.390;2024-01-10T02:41:27;102686.97;;;-11.97;100.00
36092;BME280;22147;52.388;13.390;2024-01-10T02:43:55;102687.19;;;-12.00;100.00
36092;BME280;22147;52.388;13.390;2024-01-10T02:46:27;102687.19;;;-12.00;100.00
36092;BME280;22147;52.388;13.390;2024-01-10T02:49:00;102680.16;;;-12.01;100.00
36092;BME280;22147;52.388;13.390;2024-01-10T02:51:31;102682.72;;;-12.00;100.00
36092;BME280;22147;52.388;13.390;2024-01-10T02:54:01;102685.53;;;-12.01;100.00
36092;BME280;22147;52.388;13.390;2024-01-10T02:56:32;102684.69;;;-12.02;100.00
36092;BME280;22147;52.388;13.390;2024-01-10T02:59:00;102676.03;;;-12.05;100.00
36092;BME280;22147;52.388;13.390;2024-01-10T03:01:29;102675.91;;;-12.04;100.00
36092;BME280;22147;52.388;13.390;2024-01-10T03:03:57;102678.59;;;-12.04;100.00
36092;BME280;22147;52.388;13.390;2024-01-10T03:06:25;102675.91;;;-12.04;100.00
36092;BME280;22147;52.388;13.390;2024-01-10T03:08:55;102668.72;;;-12.03;100.00
36092;BME280;22147;52.388;13.390;2024-01-10T03:11:25;102666.03;;;-12.03;100.00
36092;BME280;22147;52.388;13.390;2024-01-10T03:14:23;102659.56;;;-12.01;100.00
36092;BME280;22147;52.388;13.390;2024-01-10T03:16:54;102659.31;;;-11.98;100.00
36092;BME280;22147;52.388;13.390;2024-01-10T03:19:24;102666.34;;;-11.97;100.00
36092;BME280;22147;52.388;13.390;2024-01-10T03:21:55;102666.47;;;-11.98;100.00
36092;BME280;22147;52.388;13.390;2024-01-10T03:24:26;102663.69;;;-11.97;100.00
36092;BME280;22147;52.388;13.390;2024-01-10T03:26:57;102660.16;;;-11.97;100.00
36092;BME280;22147;52.388;13.390;2024-01-10T03:29:27;102662.69;;;-11.96;100.00
36092;BME280;22147;52.388;13.390;2024-01-10T03:31:58;102657.31;;;-11.96;100.00
36092;BME280;22147;52.388;13.390;2024-01-10T03:34:28;102660.88;;;-11.95;100.00
36092;BME280;22147;52.388;13.390;2024-01-10T03:36:58;102660.16;;;-11.97;100.00
36092;BME280;22147;52.388;13.390;2024-01-10T03:39:29;102657.31;;;-11.96;100.00
36092;BME280;22147;52.388;13.390;2024-01-10T03:42:00;102658.91;;;-11.93;100.00
36092;BME280;22147;52.388;13.390;2024-01-10T03:44:30;102659.34;;;-11.88;100.00
36092;BME280;22147;52.388;13.390;2024-01-10T03:47:01;102657.34;;;-11.86;100.00
36092;BME280;22147;52.388;13.390;2024-01-10T03:49:31;102661.59;;;-11.83;100.00
36092;BME280;22147;52.388;13.390;2024-01-10T03:52:02;102664.28;;;-11.83;100.00
36092;BME280;22147;52.388;13.390;2024-01-10T03:54:33;102660.03;;;-11.86;100.00
36092;BME280;22147;52.388;13.390;2024-01-10T03:57:04;102660.16;;;-11.88;100.00
36092;BME280;22147;52.388;13.390;2024-01-10T03:59:34;102661.31;;;-11.90;100.00
36092;BME280;22147;52.388;13.390;2024-01-10T04:02:05;102664.13;;;-11.92;100.00
36092;BME280;22147;52.388;13.390;2024-01-10T04:04:37;102651.72;;;-11.93;100.00
36092;BME280;22147;52.388;13.390;2024-01-10T04:07:09;102653.41;;;-11.92;100.00
36092;BME280;22147;52.388;13.390;2024-01-10T04:09:39;102648.03;;;-11.92;100.00
36092;BME280;22147;52.388;13.390;2024-01-10T04:12:09;102656.94;;;-11.91;100.00
36092;BME280;22147;52.388;13.390;2024-01-10T04:14:40;102657.91;;;-11.92;100.00
36092;BME280;22147;52.388;13.390;2024-01-10T04:17:10;102659.75;;;-11.93;100.00
36092;BME280;22147;52.388;13.390;2024-01-10T04:19:40;102655.34;;;-11.94;100.00
36092;BME280;22147;52.388;13.390;2024-01-10T04:22:11;102657.31;;;-11.96;100.00
36092;BME280;22147;52.388;13.390;2024-01-10T04:24:41;102654.63;;;-11.96;100.00
36092;BME280;22147;52.388;13.390;2024-01-10T04:27:12;102662.69;;;-11.96;100.00
36092;BME280;22147;52.388;13.390;2024-01-10T04:29:42;102657.31;;;-11.96;100.00
36092;BME280;22147;52.388;13.390;2024-01-10T04:32:12;102655.50;;;-11.95;100.00
36092;BME280;22147;52.388;13.390;2024-01-10T04:34:43;102656.34;;;-11.95;100.00
36092;BME280;22147;52.388;13.390;2024-01-10T04:37:13;102653.69;;;-11.95;100.00
36092;BME280;22147;52.388;13.390;2024-01-10T04:39:44;102648.31;;;-11.95;100.00
36092;BME280;22147;52.388;13.390;2024-01-10T04:42:14;102650.00;;;-11.94;100.00
36092;BME280;22147;52.388;13.390;2024-01-10T04:44:45;102643.78;;;-11.94;100.00
36092;BME280;22147;52.388;13.390;2024-01-10T04:47:15;102642.38;;;-11.98;100.00
36092;BME280;22147;52.388;13.390;2024-01-10T04:49:46;102640.81;;;-12.01;100.00
36092;BME280;22147;52.388;13.390;2024-01-10T04:52:17;102633.88;;;-12.03;100.00
36092;BME280;22147;52.388;13.390;2024-01-10T04:54:47;102634.13;;;-12.06;100.00
36092;BME280;22147;52.388;13.390;2024-01-10T04:57:17;102637.53;;;-12.04;100.00
36092;BME280;22147;52.388;13.390;2024-01-10T04:59:48;102636.69;;;-12.05;100.00
36092;BME280;22147;52.388;13.390;2024-01-10T05:02:18;102631.47;;;-12.06;100.00
36092;BME280;22147;52.388;13.390;2024-01-10T05:04:49;102638.66;;;-12.07;100.00
36092;BME280;22147;52.388;13.390;2024-01-10T05:07:18;102632.44;;;-12.07;100.00
36092;BME280;22147;52.388;13.390;2024-01-10T05:09:46;102641.34;;;-12.07;100.00
36092;BME280;22147;52.388;13.390;2024-01-10T05:12:15;102643.03;;;-12.06;100.00
36092;BME280;22147;52.388;13.390;2024-01-10T05:14:43;102640.38;;;-12.06;100.00
36092;BME280;22147;52.388;13.390;2024-01-10T05:17:11;102636.97;;;-12.08;100.00
36092;BME280;22147;52.388;13.390;2024-01-10T05:19:40;102628.22;;;-12.10;100.00
36092;BME280;22147;52.388;13.390;2024-01-10T05:22:08;102632.13;;;-12.14;100.00
36092;BME280;22147;52.388;13.390;2024-01-10T05:24:37;102645.66;;;-12.16;100.00
36092;BME280;22147;52.388;13.390;2024-01-10T05:27:05;102638.47;;;-12.15;100.00
36092;BME280;22147;52.388;13.390;2024-01-10T05:29:34;102635.66;;;-12.14;100.00
36092;BME280;22147;52.388;13.390;2024-01-10T05:32:02;102638.47;;;-12.15;100.00
36092;BME280;22147;52.388;13.390;2024-01-10T05:34:30;102646.06;;;-12.20;100.00
36092;BME280;22147;52.388;13.390;2024-01-10T05:36:59;102647.63;;;-12.18;100.00
36092;BME280;22147;52.388;13.390;2024-01-10T05:39:27;102637.75;;;-12.17;100.00
36092;BME280;22147;52.388;13.390;2024-01-10T05:41:59;102636.91;;;-12.18;100.00
36092;BME280;22147;52.388;13.390;2024-01-10T05:44:27;102644.81;;;-12.16;100.00
36092;BME280;22147;52.388;13.390;2024-01-10T05:46:56;102635.06;;;-12.17;100.00
36092;BME280;22147;52.388;13.390;2024-01-10T05:49:29;102637.09;;;-12.10;100.00
36092;BME280;22147;52.388;13.390;2024-01-10T05:52:03;102631.84;;;-12.11;100.00
36092;BME280;22147;52.388;13.390;2024-01-10T05:54:31;102638.22;;;-12.12;100.00
36092;BME280;22147;52.388;13.390;2024-01-10T05:56:59;102631.72;;;-12.10;100.00
36092;BME280;22147;52.388;13.390;2024-01-10T05:59:31;102639.66;;;-12.08;100.00
36092;BME280;22147;52.388;13.390;2024-01-10T06:01:59;102635.13;;;-12.07;100.00
36092;BME280;22147;52.388;13.390;2024-01-10T06:04:29;102634.66;;;-12.13;100.00
36092;BME280;22147;52.388;13.390;2024-01-10T06:07:00;102634.53;;;-12.11;100.00
36092;BME280;22147;52.388;13.390;2024-01-10T06:09:30;102637.09;;;-12.10;100.00
36092;BME280;22147;52.388;13.390;2024-01-10T06:11:59;102639.78;;;-12.10;100.00
36092;BME280;22147;52.388;13.390;2024-01-10T06:14:29;102626.38;;;-12.10;100.00
36092;BME280;22147;52.388;13.390;2024-01-10T06:16:58;102635.25;;;-12.09;100.00
36092;BME280;22147;52.388;13.390;2024-01-10T06:19:30;102623.09;;;-12.13;100.00
36092;BME280;22147;52.388;13.390;2024-01-10T06:22:02;102619.69;;;-12.15;100.00
36092;BME280;22147;52.388;13.390;2024-01-10T06:24:32;102628.47;;;-12.13;100.00
36092;BME280;22147;52.388;13.390;2024-01-10T06:27:01;102629.19;;;-12.11;100.00
36092;BME280;22147;52.388;13.390;2024-01-10T06:29:30;102623.69;;;-12.10;100.00
36092;BME280;22147;52.388;13.390;2024-01-10T06:32:00;102621.72;;;-12.07;100.00
36092;BME280;22147;52.388;13.390;2024-01-10T06:34:30;102618.22;;;-12.08;100.00
36092;BME280;22147;52.388;13.390;2024-01-10T06:37:00;102616.38;;;-12.07;100.00
36092;BME280;22147;52.388;13.390;2024-01-10T06:39:29;102616.50;;;-12.09;100.00
36092;BME280;22147;52.388;13.390;2024-01-10T06:41:57;102615.38;;;-12.06;100.00
36092;BME280;22147;52.388;13.390;2024-01-10T06:44:26;102619.06;;;-12.07;100.00
36092;BME280;22147;52.388;13.390;2024-01-10T06:46:58;102620.03;;;-12.09;100.00
36092;BME280;22147;52.388;13.390;2024-01-10T06:49:26;102624.53;;;-12.09;100.00
36092;BME280;22147;52.388;13.390;2024-01-10T06:51:57;102617.63;;;-12.12;100.00
36092;BME280;22147;52.388;13.390;2024-01-10T06:54:29;102611.41;;;-12.12;100.00
36092;BME280;22147;52.388;13.390;2024-01-10T06:57:00;102609.59;;;-12.12;100.00
36092;BME280;22147;52.388;13.390;2024-01-10T06:59:30;102611.25;;;-12.11;100.00
36092;BME280;22147;52.388;13.390;2024-01-10T07:02:01;102617.50;;;-12.10;100.00
36092;BME280;22147;52.388;13.390;2024-01-10T07:04:31;102620.31;;;-12.12;100.00
36092;BME280;22147;52.388;13.390;2024-01-10T07:07:02;102622.25;;;-12.14;100.00
36092;BME280;22147;52.388;13.390;2024-01-10T07:09:34;102618.88;;;-12.16;100.00
36092;BME280;22147;52.388;13.390;2024-01-10T07:12:04;102615.47;;;-12.18;100.00
36092;BME280;22147;52.388;13.390;2024-01-10T07:14:36;102613.78;;;-12.19;100.00
36092;BME280;22147;52.388;13.390;2024-01-10T07:17:07;102627.91;;;-12.17;100.00
36092;BME280;22147;52.388;13.390;2024-01-10T07:19:37;102632.38;;;-12.17;100.00
36092;BME280;22147;52.388;13.390;2024-01-10T07:22:08;102625.34;;;-12.18;100.00
36092;BME280;22147;52.388;13.390;2024-01-10T07:24:40;102626.31;;;-12.19;100.00
36092;BME280;22147;52.388;13.390;2024-01-10T07:27:10;102627.03;;;-12.17;100.00
36092;BME280;22147;52.388;13.390;2024-01-10T07:29:42;102625.06;;;-12.15;100.00
36092;BME280;22147;52.388;13.390;2024-01-10T07:32:12;102625.25;;;-12.07;100.00
36092;BME280;22147;52.388;13.390;2024-01-10T07:34:43;102619.50;;;-12.02;100.00
36092;BME280;22147;52.388;13.390;2024-01-10T07:37:15;102628.25;;;-12.00;100.00
36092;BME280;22147;52.388;13.390;2024-01-10T07:39:49;102617.41;;;-11.99;100.00
36092;BME280;22147;52.388;13.390;2024-01-10T07:42:20;102632.50;;;-11.98;100.00
36092;BME280;22147;52.388;13.390;2024-01-10T07:44:51;102626.16;;;-11.97;100.00
36092;BME280;22147;52.388;13.390;2024-01-10T07:47:23;102620.81;;;-11.97;100.00
36092;BME280;22147;52.388;13.390;2024-01-10T07:49:54;102624.91;;;-11.93;100.00
36092;BME280;22147;52.388;13.390;2024-01-10T07:52:24;102623.06;;;-11.92;100.00
36092;BME280;22147;52.388;13.390;2024-01-10T07:54:55;102619.44;;;-11.91;100.00
36092;BME280;22147;52.388;13.390;2024-01-10T07:57:25;102617.59;;;-11.91;100.00
36092;BME280;22147;52.388;13.390;2024-01-10T07:59:57;102623.50;;;-11.87;100.00
36092;BME280;22147;52.388;13.390;2024-01-10T08:02:28;102627.63;;;-11.83;100.00
36092;BME280;22147;52.388;13.390;2024-01-10T08:05:02;102626.81;;;-11.74;100.00
36092;BME280;22147;52.388;13.390;2024-01-10T08:07:38;102625.69;;;-11.71;100.00
36092;BME280;22147;52.388;13.390;2024-01-10T08:10:10;102622.88;;;-11.70;100.00
36092;BME280;22147;52.388;13.390;2024-01-10T08:12:41;102621.31;;;-11.62;100.00
36092;BME280;22147;52.388;13.390;2024-01-10T08:15:12;102621.91;;;-11.59;100.00
36092;BME280;22147;52.388;13.390;2024-01-10T08:17:44;102608.09;;;-11.54;100.00
36092;BME280;22147;52.388;13.390;2024-01-10T08:20:14;102616.31;;;-11.46;100.00
36092;BME280;22147;52.388;13.390;2024-01-10T08:22:49;102615.88;;;-11.41;100.00
36092;BME280;22147;52.388;13.390;2024-01-10T08:25:19;102616.19;;;-11.35;100.00
36092;BME280;22147;52.388;13.390;2024-01-10T08:27:48;102622.84;;;-11.29;100.00
36092;BME280;22147;52.388;13.390;2024-01-10T08:30:16;102621.75;;;-11.17;100.00
36092;BME280;22147;52.388;13.390;2024-01-10T08:32:45;102623.00;;;-11.11;100.00
36092;BME280;22147;52.388;13.390;2024-01-10T08:35:13;102620.47;;;-11.03;100.00
36092;BME280;22147;52.388;13.390;2024-01-10T08:37:42;102627.97;;;-10.97;100.00
36092;BME280;22147;52.388;13.390;2024-01-10T08:40:11;102628.97;;;-10.88;100.00
36092;BME280;22147;52.388;13.390;2024-01-10T08:42:42;102635.50;;;-10.81;100.00
36092;BME280;22147;52.388;13.390;2024-01-10T08:45:10;102633.50;;;-10.69;100.00
36092;BME280;22147;52.388;13.390;2024-01-10T08:47:38;102628.56;;;-10.64;100.00
36092;BME280;22147;52.388;13.390;2024-01-10T08:50:07;102628.72;;;-10.56;100.00
36092;BME280;22147;52.388;13.390;2024-01-10T08:52:40;102632.50;;;-10.49;100.00
36092;BME280;22147;52.388;13.390;2024-01-10T08:55:11;102639.69;;;-10.39;100.00
36092;BME280;22147;52.388;13.390;2024-01-10T08:57:43;102637.00;;;-10.30;100.00
36092;BME280;22147;52.388;13.390;2024-01-10T09:00:16;102638.66;;;-10.19;100.00
36092;BME280;22147;52.388;13.390;2024-01-10T09:02:47;102634.25;;;-10.10;100.00
36092;BME280;22147;52.388;13.390;2024-01-10T09:05:17;102635.22;;;-10.01;100.00
36092;BME280;22147;52.388;13.390;2024-01-10T09:07:49;102636.03;;;-9.91;100.00
36092;BME280;22147;52.388;13.390;2024-01-10T09:10:20;102637.16;;;-9.84;100.00
36092;BME280;22147;52.388;13.390;2024-01-10T09:12:51;102639.53;;;-9.71;100.00
36092;BME280;22147;52.388;13.390;2024-01-10T09:15:19;102637.47;;;-9.59;100.00
36092;BME280;22147;52.388;13.390;2024-01-10T09:17:48;102636.84;;;-9.44;100.00
36092;BME280;22147;52.388;13.390;2024-01-10T09:20:16;102636.09;;;-9.36;100.00
36092;BME280;22147;52.388;13.390;2024-01-10T09:22:45;102635.59;;;-9.22;100.00
36092;BME280;22147;52.388;13.390;2024-01-10T09:25:13;102637.38;;;-9.12;99.36
36092;BME280;22147;52.388;13.390;2024-01-10T09:27:42;102639.69;;;-8.99;98.32
36092;BME280;22147;52.388;13.390;2024-01-10T09:30:13;102637.09;;;-8.91;97.16
36092;BME280;22147;52.388;13.390;2024-01-10T09:32:47;102637.56;;;-8.78;97.33
36092;BME280;22147;52.388;13.390;2024-01-10T09:35:18;102629.25;;;-8.67;95.74
36092;BME280;22147;52.388;13.390;2024-01-10T09:37:48;102625.47;;;-8.56;96.49
36092;BME280;22147;52.388;13.390;2024-01-10T09:40:20;102630.47;;;-8.43;94.98
36092;BME280;22147;52.388;13.390;2024-01-10T09:42:57;102624.63;;;-8.30;95.24
36092;BME280;22147;52.388;13.390;2024-01-10T09:45:31;102630.00;;;-8.12;93.27
36092;BME280;22147;52.388;13.390;2024-01-10T09:48:06;102625.91;;;-7.90;92.65
36092;BME280;22147;52.388;13.390;2024-01-10T09:50:36;102632.34;;;-7.83;90.94
36092;BME280;22147;52.388;13.390;2024-01-10T09:53:22;102626.56;;;-7.62;90.49
36092;BME280;22147;52.388;13.390;2024-01-10T09:56:04;102636.28;;;-7.43;88.88
36092;BME280;22147;52.388;13.390;2024-01-10T09:58:35;102628.63;;;-7.22;87.96
36092;BME280;22147;52.388;13.390;2024-01-10T10:01:09;102634.91;;;-6.97;88.10
36092;BME280;22147;52.388;13.390;2024-01-10T10:03:45;102623.97;;;-6.79;84.85
36092;BME280;22147;52.388;13.390;2024-01-10T10:06:18;102619.41;;;-6.70;87.42
36092;BME280;22147;52.388;13.390;2024-01-10T10:08:50;102625.50;;;-6.27;84.30
36092;BME280;22147;52.388;13.390;2024-01-10T10:11:21;102628.03;;;-6.09;80.63
36092;BME280;22147;52.388;13.390;2024-01-10T10:13:51;102615.34;;;-6.00;80.92
36092;BME280;22147;52.388;13.390;2024-01-10T10:16:25;102618.59;;;-5.74;82.11
36092;BME280;22147;52.388;13.390;2024-01-10T10:18:54;102624.66;;;-5.63;77.72
36092;BME280;22147;52.388;13.390;2024-01-10T10:21:28;102620.50;;;-5.82;78.18
36092;BME280;22147;52.388;13.390;2024-01-10T10:24:02;102618.53;;;-5.49;76.98
36092;BME280;22147;52.388;13.390;2024-01-10T10:26:36;102615.88;;;-5.18;75.91
36092;BME280;22147;52.388;13.390;2024-01-10T10:29:07;102620.66;;;-4.97;74.72
36092;BME280;22147;52.388;13.390;2024-01-10T10:31:37;102612.03;;;-5.00;71.22
36092;BME280;22147;52.388;13.390;2024-01-10T10:34:09;102614.56;;;-4.99;72.67
36092;BME280;22147;52.388;13.390;2024-01-10T10:36:42;102613.31;;;-4.88;71.89
36092;BME280;22147;52.388;13.390;2024-01-10T10:39:16;102608.50;;;-4.78;69.94
36092;BME280;22147;52.388;13.390;2024-01-10T10:41:47;102608.69;;;-4.56;69.88
36092;BME280;22147;52.388;13.390;2024-01-10T10:44:24;102615.81;;;-4.40;68.43
36092;BME280;22147;52.388;13.390;2024-01-10T10:47:00;102607.63;;;-4.32;68.50
36092;BME280;22147;52.388;13.390;2024-01-10T10:49:52;102603.91;;;-4.31;67.32
36092;BME280;22147;52.388;13.390;2024-01-10T10:52:25;102596.81;;;-4.02;66.88
36092;BME280;22147;52.388;13.390;2024-01-10T10:54:58;102605.50;;;-4.22;65.73
36092;BME280;22147;52.388;13.390;2024-01-10T10:57:28;102600.19;;;-4.76;67.67
36092;BME280;22147;52.388;13.390;2024-01-10T11:00:00;102588.38;;;-4.60;68.76
36092;BME280;22147;52.388;13.390;2024-01-10T11:02:29;102589.56;;;-4.40;66.50
36092;BME280;22147;52.388;13.390;2024-01-10T11:05:01;102591.84;;;-4.28;68.79
36092;BME280;22147;52.388;13.390;2024-01-10T11:07:36;102584.38;;;-3.97;69.63
36092;BME280;22147;52.388;13.390;2024-01-10T11:10:32;102589.47;;;-3.79;67.43
36092;BME280;22147;52.388;13.390;2024-01-10T11:13:27;102579.88;;;-4.04;64.01
36092;BME280;22147;52.388;13.390;2024-01-10T11:23:29;102575.84;;;-4.09;64.30
36092;BME280;22147;52.388;13.390;2024-01-10T11:26:10;102585.03;;;-4.47;62.09
36092;BME280;22147;52.388;13.390;2024-01-10T11:28:43;102580.34;;;-4.54;64.03
36092;BME280;22147;52.388;13.390;2024-01-10T11:31:14;102579.28;;;-4.44;63.04
36092;BME280;22147;52.388;13.390;2024-01-10T11:33:47;102575.03;;;-4.70;64.25
36092;BME280;22147;52.388;13.390;2024-01-10T11:36:19;102563.19;;;-4.92;67.61
36092;BME280;22147;52.388;13.390;2024-01-10T11:38:57;102565.03;;;-5.16;68.71
36092;BME280;22147;52.388;13.390;2024-01-10T11:41:36;102563.66;;;-5.12;69.13
36092;BME280;22147;52.388;13.390;2024-01-10T11:46:50;102566.41;;;-5.20;69.76
36092;BME280;22147;52.388;13.390;2024-01-10T11:49:24;102572.34;;;-5.16;70.23
36092;BME280;22147;52.388;13.390;2024-01-10T11:51:58;102562.25;;;-5.30;68.37
36092;BME280;22147;52.388;13.390;2024-01-10T11:54:37;102567.50;;;-5.29;69.04
36092;BME280;22147;52.388;13.390;2024-01-10T11:57:28;102562.09;;;-5.29;69.91
36092;BME280;22147;52.388;13.390;2024-01-10T12:00:00;102558.72;;;-5.31;68.10
36092;BME280;22147;52.388;13.390;2024-01-10T12:02:34;102555.03;;;-5.46;67.93
36092;BME280;22147;52.388;13.390;2024-01-10T12:05:08;102560.81;;;-5.49;69.84
36092;BME280;22147;52.388;13.390;2024-01-10T12:07:40;102561.31;;;-5.46;68.83
36092;BME280;22147;52.388;13.390;2024-01-10T12:10:10;102555.38;;;-5.41;69.57
36092;BME280;22147;52.388;13.390;2024-01-10T12:12:39;102558.03;;;-5.33;69.08
36092;BME280;22147;52.388;13.390;2024-01-10T12:15:07;102556.84;;;-5.30;69.45
36092;BME280;22147;52.388;13.390;2024-01-10T12:17:41;102548.84;;;-5.24;68.85
36092;BME280;22147;52.388;13.390;2024-01-10T12:20:12;102549.34;;;-5.20;68.18
36092;BME280;22147;52.388;13.390;2024-01-10T12:22:42;102554.22;;;-5.16;68.34
36092;BME280;22147;52.388;13.390;2024-01-10T12:25:13;102551.13;;;-5.13;67.04
36092;BME280;22147;52.388;13.390;2024-01-10T12:27:44;102544.03;;;-5.14;68.59
36092;BME280;22147;52.388;13.390;2024-01-10T12:30:15;102541.31;;;-5.14;67.98
36092;BME280;22147;52.388;13.390;2024-01-10T12:32:50;102540.94;;;-5.11;67.44
36092;BME280;22147;52.388;13.390;2024-01-10T12:35:21;102536.84;;;-5.06;66.68
36092;BME280;22147;52.388;13.390;2024-01-10T12:37:56;102538.72;;;-5.07;67.33
36092;BME280;22147;52.388;13.390;2024-01-10T12:40:27;102536.25;;;-4.94;66.90
36092;BME280;22147;52.388;13.390;2024-01-10T12:43:03;102533.25;;;-4.99;67.03
36092;BME280;22147;52.388;13.390;2024-01-10T12:45:33;102533.16;;;-5.05;67.65
36092;BME280;22147;52.388;13.390;2024-01-10T12:48:01;102521.44;;;-5.06;66.72
36092;BME280;22147;52.388;13.390;2024-01-10T12:50:33;102521.88;;;-4.94;65.88
36092;BME280;22147;52.388;13.390;2024-01-10T12:53:03;102520.66;;;-4.92;65.61
36092;BME280;22147;52.388;13.390;2024-01-10T12:55:34;102518.16;;;-4.93;64.63